Time;durP1;ratioP1;P1;durP2;ratioP2;P2;SDS_P1;SDS_P2;PMS_P1;PMS_P2;Temp;Humidity;BMP_temperature;BMP_pressure;BME280_temperature;BME280_humidity;BME280_pressure;Samples;Min_cycle;Max_cycle;Signal;HPM_P1;HPM_P2
2021/09/01 00:00:45;;;;;;;3.83;2.47;;;;;;;14.47;81.15;93999.47;1715151;82;21659;-67
2021/09/01 00:03:12;;;;;;;6.90;3.40;;;;;;;14.46;81.21;93995.92;1718131;82;21734;-67
2021/09/01 00:05:38;;;;;;;4.08;3.10;;;;;;;14.49;81.89;94001.86;1725857;82;21541;-67
2021/09/01 00:08:06;;;;;;;3.92;2.90;;;;;;;14.56;82.03;94008.36;1717054;82;21109;-67
2021/09/01 00:10:32;;;;;;;5.85;4.35;;;;;;;14.61;81.57;94011.05;1723305;82;21403;-67
2021/09/01 00:13:01;;;;;;;5.92;3.50;;;;;;;14.63;81.18;94013.45;1728897;82;21522;-67
2021/09/01 00:15:29;;;;;;;3.22;2.92;;;;;;;14.63;81.00;94010.67;1720588;82;21081;-67
2021/09/01 00:17:56;;;;;;;5.28;3.08;;;;;;;14.58;80.97;94002.31;1725007;82;21088;-67
2021/09/01 00:20:25;;;;;;;2.67;2.47;;;;;;;14.53;81.32;94009.34;1724817;82;21130;-67
2021/09/01 00:22:55;;;;;;;6.78;2.95;;;;;;;14.54;81.39;94007.32;1729750;82;21039;-68
2021/09/01 00:25:22;;;;;;;4.12;2.40;;;;;;;14.54;81.49;94003.94;1721738;82;20999;-65
2021/09/01 00:27:50;;;;;;;3.22;2.50;;;;;;;14.56;81.33;94000.67;1720133;82;21047;-66
2021/09/01 00:30:17;;;;;;;2.85;2.60;;;;;;;14.51;81.27;94003.55;1721969;82;21014;-68
2021/09/01 00:32:43;;;;;;;3.47;2.25;;;;;;;14.48;81.43;94007.27;1718223;82;21113;-68
2021/09/01 00:35:11;;;;;;;5.62;2.77;;;;;;;14.49;81.51;94006.02;1725807;82;21015;-66
2021/09/01 00:37:39;;;;;;;4.33;3.00;;;;;;;14.45;81.77;94013.78;1725150;83;21089;-68
2021/09/01 00:40:08;;;;;;;3.70;2.83;;;;;;;14.45;81.97;94012.40;1727650;82;20971;-67
2021/09/01 00:42:36;;;;;;;4.00;2.60;;;;;;;14.43;82.00;94002.45;1714081;82;20956;-67
2021/09/01 00:45:06;;;;;;;3.02;2.37;;;;;;;14.45;81.95;94001.97;1719211;82;21138;-67
2021/09/01 00:47:36;;;;;;;3.27;2.20;;;;;;;14.42;81.84;94003.56;1729369;82;20948;-69
2021/09/01 00:50:06;;;;;;;3.27;2.58;;;;;;;14.39;81.99;93999.02;1722850;82;20996;-67
2021/09/01 00:52:40;;;;;;;4.90;2.27;;;;;;;14.39;82.08;93999.76;1720130;82;21003;-68
2021/09/01 00:55:11;;;;;;;3.35;2.65;;;;;;;14.38;82.00;94003.77;1721255;82;21604;-67
2021/09/01 00:57:39;;;;;;;2.50;2.30;;;;;;;14.36;82.05;94002.77;1721431;82;21243;-68
2021/09/01 01:00:11;;;;;;;3.00;2.62;;;;;;;14.32;82.14;94003.61;1715228;82;21447;-67
2021/09/01 01:02:39;;;;;;;4.42;2.72;;;;;;;14.27;82.37;94009.83;1714347;82;20940;-67
2021/09/01 01:05:09;;;;;;;3.15;2.33;;;;;;;14.23;83.00;94010.06;1718665;82;20963;-69
2021/09/01 01:07:37;;;;;;;3.92;2.35;;;;;;;14.20;83.36;93993.67;1723363;82;20984;-67
2021/09/01 01:10:05;;;;;;;5.28;2.50;;;;;;;14.13;83.66;94005.13;1715300;82;21808;-68
2021/09/01 01:12:32;;;;;;;2.60;1.95;;;;;;;14.13;83.91;94005.13;1721643;82;21106;-67
2021/09/01 01:14:59;;;;;;;2.65;2.42;;;;;;;14.11;83.91;93999.32;1730693;83;21567;-68
2021/09/01 01:17:26;;;;;;;2.75;2.50;;;;;;;14.12;84.17;93995.30;1719210;82;21128;-68
2021/09/01 01:19:53;;;;;;;2.60;2.40;;;;;;;14.12;84.18;93998.07;1718216;82;21063;-67
2021/09/01 01:22:23;;;;;;;3.60;2.62;;;;;;;14.15;83.94;94002.66;1718311;82;21111;-68
2021/09/01 01:25:07;;;;;;;4.25;2.25;;;;;;;14.14;84.09;94003.27;1726371;82;21007;-67
2021/09/01 01:27:44;;;;;;;2.98;2.40;;;;;;;14.15;84.08;93999.89;1729315;83;20943;-67
2021/09/01 01:30:18;;;;;;;4.03;2.83;;;;;;;14.14;84.10;93995.61;1720924;82;21050;-67
2021/09/01 01:32:47;;;;;;;6.10;2.92;;;;;;;14.15;84.41;94002.66;1713221;82;21136;-68
2021/09/01 01:35:28;;;;;;;4.40;3.22;;;;;;;14.13;84.56;93996.83;1724296;82;21120;-68
2021/09/01 01:37:56;;;;;;;6.00;3.60;;;;;;;14.10;84.75;93997.80;1715914;82;20986;-67
2021/09/01 01:40:23;;;;;;;3.98;3.30;;;;;;;14.05;85.01;93994.37;1718948;82;21579;-66
2021/09/01 01:42:53;;;;;;;6.92;3.58;;;;;;;14.00;85.24;93999.22;1717948;82;21132;-66
2021/09/01 01:45:19;;;;;;;6.50;3.98;;;;;;;13.97;85.63;94001.58;1720309;82;21185;-67
2021/09/01 01:47:46;;;;;;;5.22;3.80;;;;;;;13.94;85.97;94003.91;1720706;82;21124;-67
2021/09/01 01:50:12;;;;;;;5.47;3.60;;;;;;;13.92;86.38;94005.80;1725148;82;21521;-67
2021/09/01 01:52:39;;;;;;;8.58;3.95;;;;;;;13.89;86.58;94000.47;1730341;83;21526;-67
2021/09/01 01:55:08;;;;;;;8.25;4.10;;;;;;;13.86;87.21;94001.45;1725654;83;21445;-66
2021/09/01 01:57:35;;;;;;;8.78;4.37;;;;;;;13.91;87.94;94007.05;1723981;82;21093;-67
2021/09/01 02:00:04;;;;;;;5.60;3.62;;;;;;;13.95;88.28;94001.28;1727562;82;21802;-67
2021/09/01 02:02:33;;;;;;;5.40;3.65;;;;;;;14.01;88.39;93992.44;1717661;82;21348;-66
2021/09/01 02:05:00;;;;;;;5.17;3.42;;;;;;;14.05;88.11;93997.13;1729804;82;20989;-68
2021/09/01 02:07:29;;;;;;;4.35;3.30;;;;;;;14.08;88.03;93994.77;1730639;82;20968;-68
2021/09/01 02:09:56;;;;;;;7.08;3.55;;;;;;;14.08;87.85;93994.16;1730679;83;20944;-67
2021/09/01 02:12:23;;;;;;;5.58;3.98;;;;;;;14.06;87.79;93996.66;1725309;82;21101;-67
2021/09/01 02:14:50;;;;;;;5.78;3.02;;;;;;;14.03;87.92;93998.25;1726212;82;20977;-66
2021/09/01 02:17:17;;;;;;;4.28;2.67;;;;;;;14.02;88.08;93996.72;1725927;82;21440;-68
2021/09/01 02:19:45;;;;;;;6.70;3.27;;;;;;;14.02;88.10;93997.47;1724665;83;20988;-67
2021/09/01 02:22:12;;;;;;;8.53;3.33;;;;;;;14.00;87.97;94000.60;1716747;82;21007;-67
2021/09/01 02:24:39;;;;;;;4.28;3.02;;;;;;;13.94;88.13;93998.38;1720660;82;21142;-66
2021/09/01 02:27:06;;;;;;;4.03;2.72;;;;;;;13.93;88.60;93998.25;1717860;82;20996;-67
2021/09/01 02:29:32;;;;;;;6.72;3.35;;;;;;;13.94;88.51;93995.62;1720257;82;21002;-67
2021/09/01 02:31:59;;;;;;;8.98;3.52;;;;;;;13.93;88.44;93996.87;1721174;82;20993;-66
2021/09/01 02:34:26;;;;;;;8.03;3.15;;;;;;;13.93;88.34;93997.64;1715805;82;21429;-67
2021/09/01 02:36:52;;;;;;;4.00;2.90;;;;;;;13.91;88.25;93995.98;1722481;82;21151;-66
2021/09/01 02:39:19;;;;;;;4.28;3.00;;;;;;;13.86;88.28;93995.92;1727876;82;21123;-68
2021/09/01 02:41:46;;;;;;;5.72;2.95;;;;;;;13.83;88.47;94001.78;1722518;82;21035;-67
2021/09/01 02:44:12;;;;;;;4.67;3.42;;;;;;;13.83;88.65;94002.42;1724280;82;21608;-67
2021/09/01 02:46:39;;;;;;;7.85;3.05;;;;;;;13.85;88.75;94005.46;1727664;82;21593;-67
2021/09/01 02:49:07;;;;;;;7.15;3.55;;;;;;;13.86;88.74;94000.06;1724757;82;21149;-67
2021/09/01 02:51:34;;;;;;;5.37;2.90;;;;;;;13.85;88.96;93999.93;1717838;82;21080;-68
2021/09/01 02:54:01;;;;;;;6.75;3.00;;;;;;;13.84;88.94;94003.94;1718758;82;21043;-67
2021/09/01 02:56:28;;;;;;;3.52;3.08;;;;;;;13.79;88.97;94002.63;1709803;82;21004;-68
2021/09/01 02:58:55;;;;;;;5.75;3.20;;;;;;;13.79;89.46;94006.77;1722024;82;21006;-67
2021/09/01 03:01:22;;;;;;;4.00;3.10;;;;;;;13.86;89.69;94011.13;1730224;82;21129;-67
2021/09/01 03:03:49;;;;;;;2.75;2.55;;;;;;;13.89;89.19;94005.39;1721512;82;21014;-67
2021/09/01 03:06:16;;;;;;;5.28;2.50;;;;;;;13.84;88.91;94008.09;1716608;82;21476;-67
2021/09/01 03:08:44;;;;;;;3.77;2.70;;;;;;;13.80;89.26;94004.78;1722740;82;21011;-67
2021/09/01 03:11:11;;;;;;;9.38;3.40;;;;;;;13.81;89.23;94004.92;1720441;82;21069;-68
2021/09/01 03:13:39;;;;;;;3.45;2.75;;;;;;;13.82;89.37;94000.91;1721173;82;21011;-68
2021/09/01 03:16:08;;;;;;;4.45;2.83;;;;;;;13.83;89.37;94009.34;1724051;82;21409;-65
2021/09/01 03:18:34;;;;;;;2.62;2.42;;;;;;;13.86;89.37;94015.27;1715797;82;21001;-67
2021/09/01 03:21:01;;;;;;;4.35;2.77;;;;;;;13.86;89.30;94017.42;1730521;82;21514;-66
2021/09/01 03:23:27;;;;;;;5.17;3.17;;;;;;;13.84;89.34;94004.69;1723065;83;21080;-68
2021/09/01 03:25:54;;;;;;;6.60;2.77;;;;;;;13.81;89.76;94010.45;1728250;82;21141;-68
2021/09/01 03:28:21;;;;;;;2.45;2.25;;;;;;;13.85;90.04;94017.91;1732836;82;21003;-67
2021/09/01 03:30:47;;;;;;;5.25;3.08;;;;;;;13.88;89.86;94011.39;1726461;82;20956;-68
2021/09/01 03:33:14;;;;;;;3.77;2.72;;;;;;;13.90;90.00;94010.28;1723204;82;20967;-68
2021/09/01 03:35:40;;;;;;;3.75;2.83;;;;;;;13.96;89.89;94016.66;1725287;82;21621;-68
2021/09/01 03:38:07;;;;;;;4.35;3.17;;;;;;;14.01;89.88;94009.03;1722718;82;21720;-68
2021/09/01 03:40:34;;;;;;;5.15;2.95;;;;;;;14.02;89.56;94007.79;1719599;82;21082;-67
2021/09/01 03:43:00;;;;;;;5.45;2.62;;;;;;;14.04;89.93;94009.44;1728368;82;21038;-68
2021/09/01 03:45:27;;;;;;;4.55;2.95;;;;;;;14.08;89.60;94004.45;1727004;82;20976;-67
2021/09/01 03:47:54;;;;;;;3.62;2.87;;;;;;;14.08;89.26;94004.45;1728446;83;21160;-68
2021/09/01 03:50:22;;;;;;;4.30;3.25;;;;;;;14.02;88.97;94009.17;1719720;82;21545;-68
2021/09/01 03:52:49;;;;;;;4.00;2.85;;;;;;;13.97;89.24;94005.73;1714448;82;20951;-67
2021/09/01 03:55:16;;;;;;;3.55;2.80;;;;;;;13.98;89.19;94018.31;1725308;82;20999;-67
2021/09/01 03:57:43;;;;;;;3.70;3.00;;;;;;;13.96;89.25;94021.55;1725662;82;21428;-68
2021/09/01 04:00:12;;;;;;;6.03;3.25;;;;;;;13.97;89.48;94016.16;1727490;82;21063;-68
2021/09/01 04:02:39;;;;;;;4.33;3.15;;;;;;;14.03;89.78;94014.84;1719304;82;21101;-68
2021/09/01 04:05:07;;;;;;;4.90;3.12;;;;;;;14.06;89.71;94018.78;1720583;82;21130;-67
2021/09/01 04:07:34;;;;;;;3.70;2.77;;;;;;;14.09;89.34;94026.71;1726795;82;20956;-67
2021/09/01 04:10:01;;;;;;;3.20;2.90;;;;;;;14.04;89.22;94021.28;1725734;82;21463;-69
2021/09/01 04:12:27;;;;;;;4.12;2.98;;;;;;;14.02;89.62;94025.13;1725966;82;21433;-68
2021/09/01 04:14:55;;;;;;;4.75;3.00;;;;;;;14.07;89.86;94029.20;1722210;82;21136;-68
2021/09/01 04:17:21;;;;;;;4.30;2.60;;;;;;;14.11;89.81;94026.37;1717247;82;21056;-67
2021/09/01 04:19:49;;;;;;;6.67;2.67;;;;;;;14.08;89.27;94031.50;1722934;82;21106;-67
2021/09/01 04:22:18;;;;;;;4.03;2.72;;;;;;;14.00;89.13;94024.11;1717318;82;20993;-67
2021/09/01 04:24:45;;;;;;;4.25;2.80;;;;;;;13.92;89.24;94025.16;1728556;82;20951;-68
2021/09/01 04:27:11;;;;;;;4.03;3.02;;;;;;;13.86;89.83;94027.11;1723917;82;21161;-68
2021/09/01 04:29:38;;;;;;;3.15;2.83;;;;;;;13.90;90.21;94026.88;1718553;82;21443;-67
2021/09/01 04:32:06;;;;;;;3.52;3.05;;;;;;;13.96;90.12;94023.57;1726116;83;21082;-68
2021/09/01 04:34:33;;;;;;;2.70;2.50;;;;;;;14.00;90.20;94024.11;1727561;82;21027;-68
2021/09/01 04:37:00;;;;;;;4.87;3.08;;;;;;;14.07;90.00;94030.59;1726734;82;21485;-68
2021/09/01 04:39:27;;;;;;;3.92;3.08;;;;;;;14.07;89.90;94023.67;1728923;82;21044;-67
2021/09/01 04:41:53;;;;;;;5.97;3.20;;;;;;;14.07;89.91;94029.20;1724952;82;21128;-68
2021/09/01 04:44:22;;;;;;;3.58;3.20;;;;;;;14.11;90.11;94026.37;1726454;82;21053;-67
2021/09/01 04:46:50;;;;;;;4.00;3.00;;;;;;;14.14;89.84;94030.18;1694122;83;39086;-68
2021/09/01 04:49:17;;;;;;;5.12;2.90;;;;;;;14.16;90.18;94027.72;1721629;82;21011;-68
2021/09/01 04:51:44;;;;;;;4.17;3.40;;;;;;;14.18;90.10;94029.37;1718506;82;21140;-67
2021/09/01 04:54:10;;;;;;;3.35;2.98;;;;;;;14.16;90.07;94033.25;1722896;83;20987;-68
2021/09/01 04:56:37;;;;;;;6.92;3.08;;;;;;;14.17;90.22;94029.98;1717992;82;21144;-68
2021/09/01 04:59:06;;;;;;;6.10;3.95;;;;;;;14.21;90.31;94031.16;1716630;82;21636;-67
2021/09/01 05:01:33;;;;;;;5.30;4.20;;;;;;;14.26;90.37;94032.60;1714611;82;21569;-68
2021/09/01 05:04:00;;;;;;;6.03;4.95;;;;;;;14.28;90.27;94033.48;1722683;82;21481;-67
2021/09/01 05:06:27;;;;;;;5.65;4.17;;;;;;;14.30;90.32;94034.52;1728706;82;20983;-69
2021/09/01 05:08:55;;;;;;;5.47;4.28;;;;;;;14.36;90.12;94035.97;1715661;82;20990;-69
2021/09/01 05:11:23;;;;;;;9.65;8.65;;;;;;;14.44;89.84;94035.80;1721822;82;20991;-67
2021/09/01 05:13:51;;;;;;;7.80;7.00;;;;;;;14.52;89.09;94028.59;1726534;83;21515;-68
2021/09/01 05:16:18;;;;;;;5.67;4.42;;;;;;;14.55;88.74;94036.52;1717257;82;21073;-67
2021/09/01 05:18:45;;;;;;;4.53;3.90;;;;;;;14.55;88.61;94040.06;1730459;83;20943;-68
2021/09/01 05:21:13;;;;;;;4.50;4.10;;;;;;;14.55;88.32;94037.90;1725053;82;21057;-68
2021/09/01 05:23:42;;;;;;;6.47;5.53;;;;;;;14.58;88.31;94039.69;1719967;82;21059;-66
2021/09/01 05:26:09;;;;;;;6.33;4.90;;;;;;;14.62;88.05;94038.23;1709539;82;21633;-66
2021/09/01 05:28:36;;;;;;;5.65;4.80;;;;;;;14.66;87.86;94039.40;1722835;82;21180;-67
2021/09/01 05:31:06;;;;;;;6.55;4.53;;;;;;;14.68;87.78;94034.13;1685303;82;21030;-67
2021/09/01 05:33:37;;;;;;;4.57;4.07;;;;;;;14.71;87.64;94034.52;1689098;82;21004;-68
2021/09/01 05:36:07;;;;;;;3.55;3.25;;;;;;;14.78;87.64;94027.92;1655640;85;21121;-67
2021/09/01 05:38:34;;;;;;;4.12;3.05;;;;;;;14.87;87.38;94036.68;1646933;85;21220;-66
2021/09/01 05:41:01;;;;;;;6.17;2.98;;;;;;;14.90;87.08;94034.31;1679707;83;21189;-68
2021/09/01 05:43:28;;;;;;;2.95;2.75;;;;;;;14.90;86.62;94029.54;1710454;82;21054;-68
2021/09/01 05:45:55;;;;;;;4.20;3.45;;;;;;;14.89;86.63;94033.56;1729794;82;21074;-70
2021/09/01 05:48:22;;;;;;;7.50;5.62;;;;;;;14.92;86.96;94032.58;1713105;82;21014;-70
2021/09/01 05:50:54;;;;;;;4.17;3.77;;;;;;;14.97;87.10;94037.39;1725767;82;21074;-64
2021/09/01 05:53:21;;;;;;;4.25;2.72;;;;;;;15.00;86.57;94039.81;1700637;82;22469;-72
2021/09/01 05:55:52;;;;;;;2.85;2.65;;;;;;;14.98;85.82;94039.55;1695341;83;21008;-69
2021/09/01 05:58:20;;;;;;;8.68;5.22;;;;;;;14.96;85.36;94043.44;1693873;83;21093;-69
2021/09/01 06:00:55;;;;;;;6.83;5.20;;;;;;;14.98;85.07;94042.32;1678217;83;21732;-69
2021/09/01 06:03:34;;;;;;;9.28;5.28;;;;;;;15.00;84.55;94046.09;1697924;83;21451;-70
2021/09/01 06:06:02;;;;;;;4.92;3.02;;;;;;;15.07;84.86;94046.27;1669505;84;21084;-69
2021/09/01 06:08:34;;;;;;;3.52;2.77;;;;;;;15.11;84.28;94055.11;1695328;82;21171;-69
2021/09/01 06:11:06;;;;;;;3.22;2.80;;;;;;;15.14;83.92;94050.00;1666915;82;21152;-68
2021/09/01 06:13:34;;;;;;;4.62;3.75;;;;;;;15.19;83.79;94054.17;1698075;82;21045;-66
2021/09/01 06:16:01;;;;;;;4.28;3.85;;;;;;;15.25;84.07;94048.67;1697606;82;21078;-67
2021/09/01 06:18:29;;;;;;;8.05;5.30;;;;;;;15.28;84.72;94056.77;1682254;82;21058;-69
2021/09/01 06:20:57;;;;;;;6.20;4.30;;;;;;;15.33;85.05;94057.45;1699105;82;20973;-71
2021/09/01 06:23:24;;;;;;;3.77;3.45;;;;;;;15.40;85.05;94057.63;1685400;81;21024;-65
2021/09/01 06:25:50;;;;;;;4.25;3.52;;;;;;;15.44;84.62;94054.77;1656806;84;21081;-67
2021/09/01 06:28:18;;;;;;;3.75;3.35;;;;;;;15.45;84.54;94056.28;1678621;82;20971;-67
2021/09/01 06:30:45;;;;;;;3.45;3.05;;;;;;;15.46;84.80;94054.25;1691068;82;21882;-65
2021/09/01 06:33:12;;;;;;;3.90;3.35;;;;;;;15.49;83.99;94056.03;1703633;82;21227;-69
2021/09/01 06:35:41;;;;;;;5.03;3.15;;;;;;;15.49;83.62;94058.80;1655113;83;21561;-65
2021/09/01 06:38:08;;;;;;;3.90;2.62;;;;;;;15.51;83.30;94064.00;1681718;83;21187;-67
2021/09/01 06:40:35;;;;;;;2.80;2.60;;;;;;;15.55;82.96;94067.29;1691654;82;21315;-67
2021/09/01 06:43:04;;;;;;;4.25;2.70;;;;;;;15.59;82.79;94059.52;1698775;82;21119;-68
2021/09/01 06:45:31;;;;;;;3.92;2.37;;;;;;;15.61;82.29;94059.01;1716042;82;21032;-67
2021/09/01 06:48:00;;;;;;;3.67;2.50;;;;;;;15.59;82.40;94062.30;1678045;83;21558;-70
2021/09/01 06:50:27;;;;;;;3.50;2.60;;;;;;;15.58;82.46;94060.75;1683143;84;21457;-69
2021/09/01 06:52:54;;;;;;;3.65;3.35;;;;;;;15.62;82.44;94061.91;1681778;83;21031;-69
2021/09/01 06:55:22;;;;;;;2.85;2.65;;;;;;;15.73;82.32;94058.57;1693682;82;21134;-67
2021/09/01 06:57:48;;;;;;;3.17;2.30;;;;;;;15.93;81.95;94063.96;1694505;83;21955;-65
2021/09/01 07:00:17;;;;;;;8.73;7.55;;;;;;;16.11;81.59;94071.11;1672943;82;21113;-70
2021/09/01 07:02:44;;;;;;;3.17;2.87;;;;;;;16.27;80.91;94073.20;1669154;82;21059;-61
2021/09/01 07:05:14;;;;;;;2.90;2.70;;;;;;;16.39;81.08;94067.20;1698966;82;21062;-65
2021/09/01 07:07:42;;;;;;;2.33;2.00;;;;;;;16.53;80.76;94072.53;1708387;82;21165;-67
2021/09/01 07:10:10;;;;;;;3.30;2.10;;;;;;;16.58;80.56;94073.81;1698976;83;21552;-66
2021/09/01 07:12:38;;;;;;;3.77;2.12;;;;;;;16.60;79.23;94081.02;1666502;84;21544;-68
2021/09/01 07:15:09;;;;;;;2.00;1.90;;;;;;;16.59;78.80;94080.88;1702655;82;21584;-67
2021/09/01 07:17:37;;;;;;;2.90;2.70;;;;;;;16.61;78.61;94078.36;1692487;82;22282;-67
2021/09/01 07:20:06;;;;;;;7.70;4.95;;;;;;;16.58;78.72;94081.50;1671673;82;21114;-70
2021/09/01 07:22:32;;;;;;;4.05;2.40;;;;;;;16.63;79.20;94078.61;1691640;83;21615;-66
2021/09/01 07:25:03;;;;;;;2.98;2.05;;;;;;;16.73;79.67;94086.85;1682851;83;21137;-64
2021/09/01 07:27:30;;;;;;;2.45;2.25;;;;;;;16.76;78.73;94091.40;1699564;83;21061;-65
2021/09/01 07:29:59;;;;;;;2.55;2.33;;;;;;;16.76;77.71;94088.63;1662864;85;21110;-67
2021/09/01 07:32:26;;;;;;;2.10;1.98;;;;;;;16.78;77.10;94095.20;1685886;82;21155;-67
2021/09/01 07:34:53;;;;;;;2.58;2.37;;;;;;;16.85;76.72;94093.92;1682136;82;21550;-67
2021/09/01 07:37:20;;;;;;;2.05;1.90;;;;;;;16.91;77.01;94091.94;1680053;82;21114;-65
2021/09/01 07:39:49;;;;;;;2.40;2.20;;;;;;;16.97;77.14;94100.41;1708846;81;21088;-66
2021/09/01 07:42:18;;;;;;;2.45;2.25;;;;;;;17.01;76.49;94097.36;1686583;83;21071;-69
2021/09/01 07:44:46;;;;;;;4.20;2.20;;;;;;;17.04;76.07;94094.34;1644677;82;21584;-71
2021/09/01 07:47:14;;;;;;;3.02;2.70;;;;;;;17.10;75.41;94095.09;1666438;82;21026;-65
2021/09/01 07:49:41;;;;;;;2.50;2.30;;;;;;;17.21;74.73;94095.73;1700495;82;21617;-66
2021/09/01 07:52:08;;;;;;;4.47;2.58;;;;;;;17.25;74.34;94096.26;1666836;82;21802;-68
2021/09/01 07:54:35;;;;;;;3.27;2.65;;;;;;;17.38;73.54;94090.95;1710409;82;21058;-67
2021/09/01 07:57:03;;;;;;;2.75;2.25;;;;;;;17.48;73.00;94090.84;1672276;83;21134;-61
2021/09/01 07:59:31;;;;;;;3.45;2.95;;;;;;;17.59;73.02;94089.41;1700333;82;20971;-67
2021/09/01 08:02:01;;;;;;;4.42;2.62;;;;;;;17.69;74.25;94085.11;1686164;82;21182;-68
2021/09/01 08:04:28;;;;;;;5.53;3.33;;;;;;;17.83;74.03;94089.00;1680391;84;21054;-62
2021/09/01 08:06:55;;;;;;;5.30;3.12;;;;;;;17.94;73.61;94089.59;1676893;83;21105;-67
2021/09/01 08:09:22;;;;;;;2.20;2.00;;;;;;;18.01;73.56;94093.27;1678942;82;22281;-69
2021/09/01 08:11:50;;;;;;;2.22;2.02;;;;;;;17.98;72.24;94087.34;1688242;83;21571;-65
2021/09/01 08:14:16;;;;;;;2.15;1.92;;;;;;;17.90;71.35;94090.50;1693726;83;21087;-60
2021/09/01 08:16:43;;;;;;;2.00;1.85;;;;;;;17.89;71.04;94087.59;1701153;83;21551;-60
2021/09/01 08:19:11;;;;;;;1.92;1.60;;;;;;;17.93;71.37;94089.48;1694738;83;22248;-69
2021/09/01 08:21:38;;;;;;;2.08;1.35;;;;;;;18.02;70.71;94088.56;1692242;82;21562;-68
2021/09/01 08:24:05;;;;;;;1.15;1.15;;;;;;;18.17;68.08;94089.68;1689314;82;21078;-67
2021/09/01 08:26:32;;;;;;;1.62;1.47;;;;;;;18.30;67.14;94093.45;1720159;81;21512;-69
2021/09/01 08:28:59;;;;;;;1.32;1.22;;;;;;;18.35;65.50;94093.43;1672692;83;21524;-69
2021/09/01 08:31:26;;;;;;;7.95;1.95;;;;;;;18.45;66.23;94091.85;1684434;83;21098;-67
2021/09/01 08:33:55;;;;;;;5.85;1.60;;;;;;;18.56;66.47;94091.04;1682818;82;21843;-69
2021/09/01 08:36:22;;;;;;;1.60;1.50;;;;;;;18.60;65.07;94089.50;1677682;82;21079;-66
2021/09/01 08:38:49;;;;;;;1.60;1.50;;;;;;;18.65;65.09;94077.56;1688406;82;21066;-66
2021/09/01 08:41:18;;;;;;;5.97;2.00;;;;;;;18.76;63.05;94083.09;1705422;83;21500;-69
2021/09/01 08:43:47;;;;;;;1.65;1.55;;;;;;;18.79;61.94;94085.48;1669333;83;21023;-70
2021/09/01 08:46:16;;;;;;;10.98;2.10;;;;;;;18.79;61.13;94091.06;1698178;82;22717;-69
2021/09/01 08:48:43;;;;;;;2.45;1.42;;;;;;;18.87;62.20;94096.20;1702542;82;21020;-65
2021/09/01 08:51:10;;;;;;;1.87;1.77;;;;;;;19.00;63.00;94094.98;1716418;81;21099;-68
2021/09/01 08:53:38;;;;;;;12.30;1.92;;;;;;;19.12;61.25;94095.78;1672965;83;21225;-67
2021/09/01 08:56:05;;;;;;;3.25;1.60;;;;;;;19.17;60.57;94097.79;1687906;82;20999;-70
2021/09/01 08:58:32;;;;;;;1.72;1.62;;;;;;;19.17;59.95;94096.39;1695054;83;21141;-66
2021/09/01 09:01:01;;;;;;;2.33;2.12;;;;;;;19.05;60.14;94103.94;1680528;82;21124;-69
2021/09/01 09:03:29;;;;;;;2.30;2.00;;;;;;;18.87;60.96;94120.62;1666111;83;21015;-72
2021/09/01 09:06:04;;;;;;;1.80;1.70;;;;;;;18.66;61.24;94120.88;1679321;83;21082;-69
2021/09/01 09:08:33;;;;;;;1.87;1.70;;;;;;;18.46;62.42;94112.86;1682385;82;21590;-71
2021/09/01 09:11:01;;;;;;;13.70;2.65;;;;;;;18.35;62.95;94120.51;1623610;85;21168;-68
2021/09/01 09:13:34;;;;;;;10.68;2.02;;;;;;;18.32;63.57;94116.71;1678791;83;21608;-68
2021/09/01 09:16:08;;;;;;;2.83;1.70;;;;;;;18.31;63.00;94120.77;1688000;82;21063;-71
2021/09/01 09:18:37;;;;;;;7.20;1.75;;;;;;;18.30;63.50;94117.12;1719368;82;21495;-67
2021/09/01 09:21:20;;;;;;;5.40;1.95;;;;;;;18.39;63.39;94118.98;1706186;81;21062;-69
2021/09/01 09:23:49;;;;;;;3.87;2.00;;;;;;;18.54;63.38;94115.25;1707383;82;21543;-67
2021/09/01 09:26:31;;;;;;;1.92;1.70;;;;;;;18.70;62.46;94110.23;1677843;83;20994;-67
2021/09/01 09:29:20;;;;;;;3.90;1.67;;;;;;;18.74;62.18;94121.86;1681213;82;21043;-66
2021/09/01 09:32:07;;;;;;;1.60;1.50;;;;;;;18.74;63.56;94121.09;1702890;82;21002;-65
2021/09/01 09:34:40;;;;;;;2.20;2.00;;;;;;;18.58;63.61;94132.45;1687640;83;21058;-66
2021/09/01 09:37:13;;;;;;;1.60;1.50;;;;;;;18.25;64.81;94124.19;1687809;83;21103;-62
2021/09/01 09:39:47;;;;;;;2.40;1.70;;;;;;;17.89;64.77;94138.47;1712251;82;21043;-65
2021/09/01 09:42:40;;;;;;;2.02;1.82;;;;;;;17.62;65.96;94148.98;1708041;82;21093;-64
2021/09/01 09:45:25;;;;;;;2.05;1.90;;;;;;;17.38;68.23;94147.96;1721772;82;21276;-69
2021/09/01 09:47:54;;;;;;;1.70;1.60;;;;;;;17.18;68.81;94148.95;1688363;82;21060;-69
2021/09/01 09:50:21;;;;;;;1.62;1.52;;;;;;;17.03;68.98;94145.63;1698787;82;21069;-64
2021/09/01 09:52:50;;;;;;;1.72;1.62;;;;;;;16.95;69.00;94145.98;1696580;82;21511;-64
2021/09/01 09:55:19;;;;;;;1.95;1.75;;;;;;;16.92;70.02;94151.80;1674599;82;21068;-65
2021/09/01 09:57:57;;;;;;;1.70;1.60;;;;;;;16.90;70.14;94144.60;1677567;82;21023;-65
2021/09/01 10:00:25;;;;;;;2.42;2.17;;;;;;;17.03;70.33;94150.41;1689137;82;21091;-64
2021/09/01 10:02:52;;;;;;;2.05;1.90;;;;;;;17.23;70.15;94154.36;1693264;83;21335;-63
2021/09/01 10:05:23;;;;;;;2.27;2.05;;;;;;;17.40;70.30;94153.16;1708758;82;21535;-64
2021/09/01 10:07:50;;;;;;;2.20;1.70;;;;;;;17.61;69.46;94146.72;1666261;84;21181;-65
2021/09/01 10:10:17;;;;;;;1.90;1.80;;;;;;;17.76;68.07;94142.39;1699814;82;21242;-65
2021/09/01 10:12:46;;;;;;;2.05;1.85;;;;;;;17.82;67.34;94148.70;1715744;82;20995;-65
2021/09/01 10:15:28;;;;;;;2.05;1.70;;;;;;;17.90;68.05;94148.33;1686608;82;21227;-67
2021/09/01 10:18:00;;;;;;;2.65;2.35;;;;;;;18.01;67.59;94144.77;1649268;84;21036;-66
2021/09/01 10:20:28;;;;;;;2.50;2.30;;;;;;;18.07;67.49;94148.28;1693029;82;20972;-67
2021/09/01 10:23:05;;;;;;;2.20;2.00;;;;;;;18.14;67.61;94148.52;1685838;82;20999;-66
2021/09/01 10:25:49;;;;;;;1.98;1.77;;;;;;;18.22;67.86;94149.50;1718356;82;21176;-65
2021/09/01 10:28:24;;;;;;;;;;;;;;;18.27;67.63;94155.74;1700594;82;21198;-68
2021/09/01 10:31:18;;;;;;;1.67;1.57;;;;;;;18.20;66.42;94169.52;1701997;82;20176;-69
2021/09/01 10:33:50;;;;;;;2.45;1.50;;;;;;;18.03;66.86;94177.02;1666976;83;21219;-65
2021/09/01 10:36:30;;;;;;;1.70;1.60;;;;;;;17.80;68.34;94178.33;1689190;82;21118;-66
2021/09/01 10:39:33;;;;;;;1.72;1.52;;;;;;;17.64;69.27;94179.08;1706724;82;21618;-63
2021/09/01 10:42:35;;;;;;;1.80;1.45;;;;;;;17.48;70.14;94181.23;1717722;82;21377;-65
2021/09/01 10:45:10;;;;;;;3.05;2.85;;;;;;;17.40;70.90;94174.62;1675519;84;21263;-62
2021/09/01 10:48:00;;;;;;;2.02;1.30;;;;;;;17.46;70.42;94174.02;1672140;84;21043;-63
2021/09/01 10:50:42;;;;;;;7.20;5.75;;;;;;;17.59;69.34;94172.86;1667438;83;21077;-63
2021/09/01 10:53:25;;;;;;;2.50;2.30;;;;;;;17.84;68.71;94180.95;1697427;82;21068;-67
2021/09/01 10:55:56;;;;;;;2.90;2.15;;;;;;;18.10;67.59;94186.23;1686566;82;21851;-66
2021/09/01 10:58:38;;;;;;;3.12;1.70;;;;;;;18.50;67.16;94187.82;1679408;82;21091;-68
2021/09/01 11:01:14;;;;;;;1.62;1.52;;;;;;;18.76;66.94;94184.81;1691061;82;21008;-70
2021/09/01 11:03:53;;;;;;;1.87;1.75;;;;;;;18.91;65.75;94176.12;1688674;83;21066;-63
2021/09/01 11:06:25;;;;;;;1.50;1.40;;;;;;;18.94;65.11;94180.04;1680782;82;22254;-68
2021/09/01 11:09:14;;;;;;;2.92;1.65;;;;;;;18.94;65.65;94178.64;1669435;85;21150;-62
2021/09/01 11:11:51;;;;;;;1.30;1.20;;;;;;;18.82;65.74;94174.38;1685365;82;21039;-66
2021/09/01 11:14:38;;;;;;;1.47;1.30;;;;;;;18.52;65.13;94177.70;1674674;83;22339;-66
2021/09/01 11:17:26;;;;;;;2.22;1.80;;;;;;;18.26;66.37;94181.39;1693407;82;21462;-65
2021/09/01 11:20:00;;;;;;;2.08;1.30;;;;;;;18.04;66.54;94187.63;1683856;83;21050;-63
2021/09/01 11:22:37;;;;;;;2.10;1.90;;;;;;;17.88;66.76;94192.61;1694268;82;22052;-65
2021/09/01 11:25:13;;;;;;;2.08;1.87;;;;;;;17.87;67.10;94195.89;1690734;82;21624;-63
2021/09/01 11:27:48;;;;;;;1.80;1.70;;;;;;;17.84;67.49;94185.13;1668535;84;21039;-62
2021/09/01 11:30:16;;;;;;;3.17;1.75;;;;;;;17.82;67.32;94191.84;1690580;82;21063;-67
2021/09/01 11:32:44;;;;;;;3.50;1.85;;;;;;;17.75;67.00;94186.79;1697520;82;21194;-64
2021/09/01 11:35:23;;;;;;;1.72;1.60;;;;;;;17.69;67.06;94190.83;1698726;82;21119;-66
2021/09/01 11:38:02;;;;;;;3.22;1.90;;;;;;;17.67;66.96;94201.06;1685680;82;21005;-64
2021/09/01 11:40:39;;;;;;;2.45;2.20;;;;;;;17.70;67.52;94201.47;1671789;83;21061;-63
2021/09/01 11:43:13;;;;;;;3.45;2.20;;;;;;;17.77;67.55;94200.18;1707210;82;21074;-67
2021/09/01 11:45:47;;;;;;;4.17;2.62;;;;;;;17.83;67.81;94199.56;1682835;83;21141;-63